Saint-Tite, Canada
Current Conditions -  °F | °C
As of 4:00 AM on Wednesday 28 Jan 2015 (Local Time) from CYRQ Reporting Station
Broken Clouds Broken Clouds  
Wind Chill: -10°   Ceiling: 10000
Heat Index:   Visibility: 9mi
Dew Point: -9°   Wind: 10mph
Humidity: 52%   Direction: 360°N
Pressure: 30.02"   Gusts: NA
Location:  46.72°N, 72.57°W
Report Text: CYRQ 280900Z AUTO 36009KT 9SM BKN100 M15/M23 A3002 RMK SLP171
Loading
Personal Weather Stations






























Interactive Weather Map New forecast layout! Learn more

10-Day Weather Forecast

Advertisements
Track Severe Weather on mobile